createdAt,value
2019-05-29T00:06:16.000Z,1010.105
2019-05-29T00:16:17.000Z,1010.133
2019-05-29T00:26:16.000Z,1010.281
2019-05-29T00:36:16.000Z,1010.393
2019-05-29T00:46:16.000Z,1010.47
2019-05-29T00:56:18.000Z,1010.58
2019-05-29T01:06:16.000Z,1010.677
2019-05-29T01:16:16.000Z,1010.811
2019-05-29T01:26:19.000Z,1010.846
2019-05-29T01:36:16.000Z,1010.989
2019-05-29T01:46:16.000Z,1010.997
2019-05-29T01:56:16.000Z,1011.071
2019-05-29T02:06:16.000Z,1011.18
2019-05-29T02:16:17.000Z,1011.283
2019-05-29T02:26:17.000Z,1011.43
2019-05-29T02:36:17.000Z,1011.47
2019-05-29T02:46:19.000Z,1011.492
2019-05-29T03:06:19.000Z,1011.804
2019-05-29T03:16:17.000Z,1011.911
2019-05-29T03:26:17.000Z,1011.981
2019-05-29T03:36:18.000Z,1012.054
2019-05-29T03:46:20.000Z,1012.183
2019-05-29T03:56:17.000Z,1012.289
2019-05-29T04:06:17.000Z,1012.341
2019-05-29T04:16:17.000Z,1012.445
2019-05-29T04:26:18.000Z,1012.54
2019-05-29T04:46:17.000Z,1012.758
2019-05-29T04:56:17.000Z,1013.003
2019-05-29T05:06:17.000Z,1013.114
2019-05-29T05:16:17.000Z,1013.166
2019-05-29T05:26:17.000Z,1013.279
2019-05-29T05:36:17.000Z,1013.404
2019-05-29T05:46:17.000Z,1013.499
2019-05-29T05:56:17.000Z,1013.592
2019-05-29T06:06:17.000Z,1013.725
2019-05-29T06:16:19.000Z,1013.78
2019-05-29T06:26:17.000Z,1013.863
2019-05-29T06:36:17.000Z,1013.903
2019-05-29T06:46:17.000Z,1014.085
2019-05-29T06:56:17.000Z,1014.276
2019-05-29T07:06:17.000Z,1014.423
2019-05-29T07:16:17.000Z,1014.467
2019-05-29T07:26:19.000Z,1014.554
2019-05-29T07:36:17.000Z,1014.62
2019-05-29T07:46:17.000Z,1014.669
2019-05-29T07:56:18.000Z,1014.646
2019-05-29T08:06:17.000Z,1014.691
2019-05-29T08:16:17.000Z,1014.702
2019-05-29T08:26:17.000Z,1014.812
2019-05-29T08:36:17.000Z,1014.844
2019-05-29T08:46:18.000Z,1014.881
2019-05-29T08:56:17.000Z,1014.885
2019-05-29T09:16:17.000Z,1014.87
2019-05-29T09:36:17.000Z,1014.837
2019-05-29T09:46:17.000Z,1014.833
2019-05-29T09:56:17.000Z,1014.925
2019-05-29T10:06:17.000Z,1014.979
2019-05-29T10:16:20.000Z,1014.948
2019-05-29T10:26:18.000Z,1014.958
2019-05-29T10:36:17.000Z,1014.985
2019-05-29T10:46:18.000Z,1014.973
2019-05-29T10:56:18.000Z,1014.935
2019-05-29T11:06:18.000Z,1014.889
2019-05-29T11:16:18.000Z,1014.871
2019-05-29T11:26:18.000Z,1014.854
2019-05-29T11:36:18.000Z,1014.831
2019-05-29T11:46:18.000Z,1014.795
2019-05-29T11:56:19.000Z,1014.807
2019-05-29T12:06:18.000Z,1014.803
2019-05-29T12:16:18.000Z,1014.744
2019-05-29T12:26:18.000Z,1014.692
2019-05-29T12:36:18.000Z,1014.631
2019-05-29T12:46:18.000Z,1014.555
2019-05-29T12:56:18.000Z,1014.565
2019-05-29T13:06:19.000Z,1014.533
2019-05-29T13:16:18.000Z,1014.45
2019-05-29T13:26:18.000Z,1014.516
2019-05-29T13:36:18.000Z,1014.339
2019-05-29T13:46:18.000Z,1014.395
2019-05-29T13:56:18.000Z,1014.292
2019-05-29T14:06:19.000Z,1014.196
2019-05-29T14:16:18.000Z,1014.224
2019-05-29T14:26:18.000Z,1014.119
2019-05-29T14:46:18.000Z,1014.13
2019-05-29T14:56:19.000Z,1014.127
2019-05-29T15:06:18.000Z,1014.11
2019-05-29T15:16:18.000Z,1014.036
2019-05-29T15:26:19.000Z,1014.038
2019-05-29T15:36:18.000Z,1014.114
2019-05-29T15:46:18.000Z,1014.092
2019-05-29T15:56:18.000Z,1014.123
2019-05-29T16:06:18.000Z,1014.078
2019-05-29T16:16:18.000Z,1013.908
2019-05-29T16:26:18.000Z,1013.807
2019-05-29T16:36:18.000Z,1013.757
2019-05-29T16:46:18.000Z,1013.741
2019-05-29T16:56:19.000Z,1013.796
2019-05-29T17:06:18.000Z,1013.723
2019-05-29T17:16:18.000Z,1013.745
2019-05-29T17:26:19.000Z,1013.735
2019-05-29T17:36:18.000Z,1013.726
2019-05-29T17:46:18.000Z,1013.738
2019-05-29T17:56:18.000Z,1013.864
2019-05-29T18:06:18.000Z,1013.862
2019-05-29T18:16:18.000Z,1013.901
2019-05-29T18:26:20.000Z,1013.923
2019-05-29T18:36:19.000Z,1013.791
2019-05-29T18:46:18.000Z,1013.734
2019-05-29T18:56:19.000Z,1013.657
2019-05-29T19:06:18.000Z,1013.598
2019-05-29T19:16:19.000Z,1013.768
2019-05-29T19:26:19.000Z,1013.861
2019-05-29T19:36:19.000Z,1013.95
2019-05-29T19:46:19.000Z,1014.007
2019-05-29T19:56:19.000Z,1014.142
2019-05-29T20:06:23.000Z,1014.221
2019-05-29T20:16:19.000Z,1014.235
2019-05-29T20:26:19.000Z,1014.283
2019-05-29T20:36:19.000Z,1014.203
2019-05-29T20:46:19.000Z,1014.206
2019-05-29T20:56:19.000Z,1014.21
2019-05-29T21:06:19.000Z,1014.152
2019-05-29T21:16:19.000Z,1014.288
2019-05-29T21:26:19.000Z,1014.252
2019-05-29T21:36:19.000Z,1014.243
2019-05-29T21:46:19.000Z,1014.17
2019-05-29T21:56:19.000Z,1014.143
2019-05-29T22:06:19.000Z,1014.18
2019-05-29T22:16:20.000Z,1014.087
2019-05-29T22:26:19.000Z,1014.144
2019-05-29T22:36:19.000Z,1014.086
2019-05-29T22:46:19.000Z,1013.981
2019-05-29T22:56:19.000Z,1013.876
2019-05-29T23:06:19.000Z,1013.853
2019-05-29T23:16:19.000Z,1013.791
2019-05-29T23:26:19.000Z,1013.722
2019-05-29T23:36:19.000Z,1013.681
2019-05-29T23:46:20.000Z,1013.614
2019-05-29T23:56:19.000Z,1013.518
